createdAt,value
2022-08-05T00:02:57.237Z,100325.69
2022-08-05T00:06:22.344Z,100325.69
2022-08-05T00:09:44.124Z,100321.28
2022-08-05T00:12:56.755Z,100309.00
2022-08-05T00:16:36.226Z,100324.53
2022-08-05T00:20:02.377Z,100323.12
2022-08-05T00:23:44.718Z,100322.34
2022-08-05T00:26:46.691Z,100321.81
2022-08-05T00:29:57.128Z,100316.62
2022-08-05T00:33:06.974Z,100313.94
2022-08-05T00:37:12.484Z,100322.19
2022-08-05T00:39:58.641Z,100318.22
2022-08-05T00:43:07.566Z,100326.03
2022-08-05T00:46:12.761Z,100316.34
2022-08-05T00:49:20.137Z,100316.34
2022-08-05T00:52:28.423Z,100314.63
2022-08-05T00:55:42.413Z,100310.31
2022-08-05T00:58:47.872Z,100300.84
2022-08-05T01:01:51.179Z,100307.53
2022-08-05T01:04:55.538Z,100306.31
2022-08-05T01:08:40.112Z,100299.13
2022-08-05T01:12:18.120Z,100296.41
2022-08-05T01:15:57.146Z,100293.25
2022-08-05T01:19:57.030Z,100296.28
2022-08-05T01:23:34.969Z,100297.66
2022-08-05T01:26:54.892Z,100299.06
2022-08-05T01:30:03.835Z,100302.19
2022-08-05T01:33:10.794Z,100290.41
2022-08-05T01:36:21.196Z,100302.22
2022-08-05T01:39:45.768Z,100304.34
2022-08-05T01:42:52.789Z,100302.38
2022-08-05T01:45:57.879Z,100298.91
2022-08-05T01:49:24.974Z,100297.25
2022-08-05T01:52:50.498Z,100299.72
2022-08-05T01:55:59.675Z,100304.94
2022-08-05T01:59:13.881Z,100297.84
2022-08-05T02:02:46.466Z,100297.91
2022-08-05T02:06:37.177Z,100299.22
2022-08-05T02:09:51.532Z,100301.47
2022-08-05T02:13:16.628Z,100296.41
2022-08-05T02:16:28.187Z,100302.31
2022-08-05T02:19:47.434Z,100299.75
2022-08-05T02:22:58.698Z,100297.69
2022-08-05T02:26:08.091Z,100289.16
2022-08-05T02:29:21.572Z,100296.38
2022-08-05T02:32:40.834Z,100295.16
2022-08-05T02:36:15.534Z,100294.69
2022-08-05T02:39:41.311Z,100286.91
2022-08-05T02:42:52.660Z,100286.75
2022-08-05T02:45:58.807Z,100290.38
2022-08-05T02:49:06.103Z,100286.66
2022-08-05T02:52:29.770Z,100281.94
2022-08-05T02:56:01.854Z,100283.28
2022-08-05T02:59:06.439Z,100286.28
2022-08-05T03:02:15.097Z,100276.62
2022-08-05T03:06:54.921Z,100277.00
2022-08-05T03:09:04.772Z,100275.25
2022-08-05T03:12:10.797Z,100271.47
2022-08-05T03:15:15.402Z,100275.25
2022-08-05T03:18:29.774Z,100269.19
2022-08-05T03:41:38.601Z,100267.81
2022-08-05T03:45:21.815Z,100270.84
2022-08-05T03:48:45.420Z,100283.03
2022-08-05T03:52:49.193Z,100275.19
2022-08-05T03:56:36.786Z,100278.75
2022-08-05T03:59:54.719Z,100280.78
2022-08-05T04:03:01.613Z,100279.34
2022-08-05T04:06:26.121Z,100277.31
2022-08-05T04:09:30.495Z,100281.84
2022-08-05T04:13:00.222Z,100276.09
2022-08-05T04:16:09.643Z,100282.81
2022-08-05T04:19:20.836Z,100280.94
2022-08-05T04:22:26.560Z,100280.38
2022-08-05T04:25:57.425Z,100285.72
2022-08-05T04:29:07.072Z,100284.84
2022-08-05T04:32:11.354Z,100281.75
2022-08-05T04:35:17.582Z,100279.66
2022-08-05T04:38:43.854Z,100280.59
2022-08-05T04:41:53.985Z,100282.50
2022-08-05T04:44:59.848Z,100278.38
2022-08-05T04:48:27.355Z,100278.81
2022-08-05T04:51:51.306Z,100282.47
2022-08-05T04:55:14.346Z,100269.28
2022-08-05T04:58:21.632Z,100283.66
2022-08-05T05:02:41.764Z,100283.78
2022-08-05T06:44:30.527Z,100273.91
2022-08-05T06:48:37.044Z,100270.25
2022-08-05T06:51:33.032Z,100276.03
2022-08-05T06:54:36.403Z,100284.19
2022-08-05T06:57:57.166Z,100276.62
2022-08-05T07:01:07.807Z,100279.84
2022-08-05T07:04:13.958Z,100276.25
2022-08-05T07:07:23.894Z,100273.69
2022-08-05T07:10:52.271Z,100283.59
2022-08-05T07:14:29.796Z,100276.53
2022-08-05T07:18:00.303Z,100279.69
2022-08-05T07:20:57.985Z,100280.50
2022-08-05T07:28:17.115Z,100272.94
2022-08-05T07:31:53.963Z,100277.72
2022-08-05T07:43:20.328Z,100272.31
2022-08-05T08:06:44.529Z,100264.66
2022-08-05T08:10:20.813Z,100264.03
2022-08-05T08:13:30.735Z,100253.66
2022-08-05T08:16:51.175Z,100250.50
2022-08-05T08:20:22.604Z,100247.94
2022-08-05T08:24:01.457Z,100241.38
2022-08-05T08:27:00.754Z,100247.19
2022-08-05T08:30:27.631Z,100241.63
2022-08-05T08:33:38.597Z,100249.91
2022-08-05T08:36:48.834Z,100242.88
2022-08-05T08:40:03.429Z,100249.59
2022-08-05T08:45:16.101Z,100240.03
2022-08-05T08:46:53.332Z,100242.56
2022-08-05T08:50:22.347Z,100240.63
2022-08-05T08:53:24.979Z,100248.31
2022-08-05T08:56:33.482Z,100247.22
2022-08-05T08:59:38.374Z,100240.31
2022-08-05T09:02:48.281Z,100238.81
2022-08-05T09:09:53.606Z,100235.03
2022-08-05T09:13:04.971Z,100233.28
2022-08-05T09:16:23.091Z,100234.59
2022-08-05T09:19:36.418Z,100228.38
2022-08-05T09:23:21.747Z,100226.63
2022-08-05T09:26:26.634Z,100227.59
2022-08-05T09:29:47.731Z,100220.78
2022-08-05T09:32:52.999Z,100228.44
2022-08-05T09:36:11.588Z,100213.50
2022-08-05T09:39:22.242Z,100213.37
2022-08-05T09:42:27.998Z,100206.44
2022-08-05T09:46:07.801Z,100204.03
2022-08-05T09:53:22.987Z,100193.78
2022-08-05T09:56:52.636Z,100201.22
2022-08-05T09:59:58.946Z,100198.44
2022-08-05T10:03:15.338Z,100189.63
2022-08-05T10:18:55.305Z,100163.09
2022-08-05T10:22:30.370Z,100167.97
2022-08-05T10:26:07.080Z,100164.78
2022-08-05T10:29:10.702Z,100156.56
2022-08-05T10:32:53.603Z,100160.66
2022-08-05T10:35:40.391Z,100163.50
2022-08-05T10:38:53.273Z,100151.75
2022-08-05T10:42:11.324Z,100146.78
2022-08-05T10:45:23.252Z,100144.03
2022-08-05T10:49:16.558Z,100136.75
2022-08-05T10:52:54.057Z,100143.81
2022-08-05T10:56:25.313Z,100139.47
2022-08-05T11:00:04.363Z,100125.75
2022-08-05T11:03:25.082Z,100136.59
2022-08-05T11:06:30.907Z,100131.75
2022-08-05T11:09:46.198Z,100136.84
2022-08-05T11:12:54.449Z,100120.53
2022-08-05T11:16:22.447Z,100112.63
2022-08-05T11:20:11.150Z,100119.09
2022-08-05T11:23:33.600Z,100115.31
2022-08-05T11:27:50.768Z,100114.44
2022-08-05T11:30:58.868Z,100113.00
2022-08-05T11:34:08.118Z,100107.28
2022-08-05T11:38:29.936Z,100106.75
2022-08-05T11:41:34.137Z,100107.22
2022-08-05T11:44:53.103Z,100112.84
2022-08-05T11:47:58.874Z,100109.16
2022-08-05T11:51:02.721Z,100114.34
2022-08-05T11:54:06.913Z,100105.81
2022-08-05T11:57:24.359Z,100114.50
2022-08-05T12:00:31.917Z,100103.34
2022-08-05T12:03:56.014Z,100105.69
2022-08-05T12:07:01.209Z,100107.66
2022-08-05T12:10:19.342Z,100110.00
2022-08-05T12:13:47.904Z,100106.94
2022-08-05T12:16:49.705Z,100099.44
2022-08-05T12:20:17.142Z,100098.72
2022-08-05T12:23:24.976Z,100084.97
2022-08-05T12:26:36.439Z,100087.47
2022-08-05T12:29:39.842Z,100082.00
2022-08-05T12:32:51.296Z,100081.72
2022-08-05T12:35:57.717Z,100079.31
2022-08-05T12:39:01.746Z,100074.47
2022-08-05T12:42:16.609Z,100074.69
2022-08-05T12:45:20.469Z,100074.53
2022-08-05T12:48:32.527Z,100069.94
2022-08-05T12:52:14.424Z,100062.66
2022-08-05T12:55:25.463Z,100057.63
2022-08-05T12:58:38.218Z,100060.50
2022-08-05T13:02:12.116Z,100064.78
2022-08-05T13:05:15.357Z,100057.03
2022-08-05T13:08:18.974Z,100044.91
2022-08-05T13:12:02.168Z,100052.03
2022-08-05T13:15:06.677Z,100038.56
2022-08-05T13:18:10.660Z,100031.22
2022-08-05T13:21:14.408Z,100023.25
2022-08-05T13:24:27.606Z,100026.13
2022-08-05T13:27:44.015Z,100018.03
2022-08-05T13:30:54.558Z,100022.25
2022-08-05T13:34:21.465Z,100020.59
2022-08-05T13:37:34.225Z,100024.38
2022-08-05T13:41:02.927Z,100015.31
2022-08-05T13:44:07.982Z,100008.91
2022-08-05T13:47:35.143Z,100017.84
2022-08-05T13:50:40.035Z,100008.97
2022-08-05T13:53:47.756Z,100014.78
2022-08-05T13:56:51.998Z,100003.06
2022-08-05T13:59:57.177Z,100001.84
2022-08-05T14:03:02.860Z,99998.47
2022-08-05T14:06:25.913Z,99986.88
2022-08-05T14:09:29.760Z,99998.06
2022-08-05T14:12:33.279Z,99989.97
2022-08-05T14:16:08.020Z,99982.97
2022-08-05T14:19:04.525Z,99982.94
2022-08-05T14:22:11.934Z,99976.63
2022-08-05T14:25:21.475Z,99962.66
2022-08-05T14:28:27.151Z,99968.03
2022-08-05T14:31:54.314Z,99958.34
2022-08-05T14:34:56.685Z,99958.19
2022-08-05T14:38:01.075Z,99957.44
2022-08-05T14:45:07.096Z,99949.66
2022-08-05T14:48:32.474Z,99951.12
2022-08-05T14:51:42.655Z,99945.41
2022-08-05T14:54:53.030Z,99941.06
2022-08-05T14:57:56.716Z,99928.50
2022-08-05T15:01:00.559Z,99936.06
2022-08-05T15:04:07.167Z,99941.25
2022-08-05T15:07:11.106Z,99943.28
2022-08-05T15:10:35.482Z,99935.16
2022-08-05T15:13:45.849Z,99938.59
2022-08-05T15:16:49.629Z,99938.59
2022-08-05T15:19:55.135Z,99927.13
2022-08-05T15:23:10.494Z,99928.03
2022-08-05T15:26:13.772Z,99927.50
2022-08-05T15:29:18.105Z,99920.13
2022-08-05T15:32:22.121Z,99917.25
2022-08-05T15:35:35.942Z,99916.31
2022-08-05T15:38:40.910Z,99915.03
2022-08-05T15:41:58.549Z,99909.22
2022-08-05T15:45:02.968Z,99912.16
2022-08-05T15:48:10.106Z,99916.87
2022-08-05T15:51:22.611Z,99908.75
2022-08-05T15:54:46.339Z,99909.84
2022-08-05T15:57:56.006Z,99912.06
2022-08-05T16:05:09.733Z,99909.50
2022-08-05T16:12:17.430Z,99906.00
2022-08-05T16:15:23.920Z,99908.22
2022-08-05T16:18:28.016Z,99899.91
2022-08-05T16:22:01.178Z,99904.44
2022-08-05T16:24:56.861Z,99901.75
2022-08-05T16:28:10.530Z,99904.22
2022-08-05T16:35:15.994Z,99908.75
2022-08-05T16:38:28.281Z,99904.50
2022-08-05T16:42:13.615Z,99905.38
2022-08-05T16:44:57.094Z,99899.66
2022-08-05T16:48:04.316Z,99906.09
2022-08-05T16:51:09.769Z,99904.94
2022-08-05T16:54:22.509Z,99900.72
2022-08-05T16:57:53.715Z,99904.34
2022-08-05T17:00:53.915Z,99914.31
2022-08-05T17:03:58.339Z,99907.91
2022-08-05T17:07:11.216Z,99916.19
2022-08-05T17:10:15.576Z,99913.22
2022-08-05T17:13:21.268Z,99920.62
2022-08-05T17:16:42.363Z,99912.72
2022-08-05T17:19:47.363Z,99907.50
2022-08-05T17:22:59.270Z,99917.03
2022-08-05T17:30:19.278Z,99924.59
2022-08-05T17:34:20.755Z,99927.09
2022-08-05T17:38:30.936Z,99932.13
2022-08-05T17:51:26.487Z,99941.56
2022-08-05T18:11:09.668Z,99945.13
2022-08-05T18:14:26.765Z,99940.44
2022-08-05T18:18:01.211Z,99933.78
2022-08-05T18:20:53.339Z,99950.09
2022-08-05T18:24:16.496Z,99941.44
2022-08-05T18:27:20.192Z,99948.13
2022-08-05T18:30:23.899Z,99953.78
2022-08-05T18:33:46.658Z,99955.22
2022-08-05T18:36:50.344Z,99959.41
2022-08-05T18:41:52.720Z,99956.66
2022-08-05T18:43:42.964Z,99958.56
2022-08-05T18:46:52.147Z,99963.22
2022-08-05T18:50:15.669Z,99964.16
2022-08-05T18:53:22.897Z,99967.06
2022-08-05T18:56:28.558Z,99973.91
2022-08-05T18:59:43.994Z,99975.94
2022-08-05T19:03:15.919Z,99970.78
2022-08-05T19:06:21.999Z,99970.59
2022-08-05T19:09:28.444Z,99967.78
2022-08-05T19:12:43.416Z,99972.47
2022-08-05T19:15:59.761Z,99977.13
2022-08-05T19:19:08.079Z,99977.75
2022-08-05T19:22:33.380Z,99970.47
2022-08-05T19:26:02.222Z,99979.19
2022-08-05T19:29:07.037Z,99984.16
2022-08-05T19:32:46.835Z,99981.31
2022-08-05T19:36:21.912Z,99980.00
2022-08-05T19:39:54.115Z,99983.31
2022-08-05T19:43:05.319Z,99980.34
2022-08-05T19:50:21.699Z,99985.75
2022-08-05T19:54:04.023Z,99980.09
2022-08-05T19:57:11.037Z,99975.03
2022-08-05T20:00:40.012Z,99989.59
2022-08-05T20:04:06.330Z,99984.66
2022-08-05T20:07:47.862Z,99988.66
2022-08-05T20:11:13.464Z,99990.28
2022-08-05T20:14:40.940Z,99989.06
2022-08-05T20:18:32.895Z,99988.03
2022-08-05T20:21:33.775Z,99984.84
2022-08-05T20:24:41.608Z,99997.78
2022-08-05T20:27:47.151Z,99996.69
2022-08-05T20:30:57.236Z,99994.28
2022-08-05T20:34:00.165Z,99996.78
2022-08-05T20:37:04.039Z,99999.16
2022-08-05T20:40:12.908Z,99999.72
2022-08-05T20:44:03.480Z,100001.06
2022-08-05T20:47:19.094Z,99998.50
2022-08-05T20:50:37.764Z,99999.94
2022-08-05T20:53:57.006Z,100004.78
2022-08-05T20:57:01.148Z,100010.66
2022-08-05T21:00:21.038Z,100011.00
2022-08-05T21:03:34.906Z,100004.34
2022-08-05T21:06:45.676Z,100016.06
2022-08-05T21:09:53.541Z,100017.47
2022-08-05T21:13:48.055Z,100019.06
2022-08-05T21:16:57.465Z,100027.00
2022-08-05T21:20:09.911Z,100028.13
2022-08-05T21:23:14.185Z,100027.56
2022-08-05T21:26:17.250Z,100025.72
2022-08-05T21:29:26.288Z,100016.34
2022-08-05T21:32:33.683Z,100031.13
2022-08-05T22:35:58.956Z,100048.06
2022-08-05T22:39:22.971Z,100053.31
2022-08-05T22:42:27.580Z,100049.22
2022-08-05T22:45:32.889Z,100040.44
2022-08-05T22:48:38.331Z,100056.41
2022-08-05T22:52:04.843Z,100051.91
2022-08-05T22:55:19.197Z,100048.13
2022-08-05T22:58:28.353Z,100044.00
2022-08-05T23:02:03.836Z,100053.56
2022-08-05T23:05:02.059Z,100039.88
2022-08-05T23:08:14.887Z,100050.16
2022-08-05T23:11:19.114Z,100039.84
2022-08-05T23:14:23.035Z,100047.34
2022-08-05T23:17:37.460Z,100047.84
2022-08-05T23:21:01.131Z,100038.84
2022-08-05T23:24:11.455Z,100050.44
2022-08-05T23:27:42.453Z,100046.31
2022-08-05T23:31:17.030Z,100039.34
2022-08-05T23:34:56.674Z,100038.59
2022-08-05T23:38:01.618Z,100043.28
2022-08-05T23:41:05.005Z,100036.91
2022-08-05T23:44:45.471Z,100023.97
2022-08-05T23:48:17.579Z,100037.81
2022-08-05T23:52:18.987Z,100038.94
2022-08-05T23:55:52.240Z,100038.91
2022-08-05T23:59:19.525Z,100031.78
